aviador You're here:

KT70 Decoded Metar

in
Report Time2018-07-22 11:58:00
UTC Time2018-07-22 12:39:35
Flight Rules vfr VFR
Wind180° at 07 kt
W.Rank180° ranks 10
Current wind is below 180° avg. (7.7)
Visibility9999 m
Phenomena:N/A
Clouds:N/A
Expected CloudBase > 1,600 ft AGL from Temp-Dew spread
CeilingNone
Temp26°C
Dew Point22°C (79% RH)
QNH1014 hPa
Raw Report
KT70 221158Z AUTO 18007KT 9SM CLR 26/22 A2993 RMK AO2 SLP120
T02550220 10315 20255 53007=

Extra information for KT70:More info

Social comments